Time;durP1;ratioP1;P1;durP2;ratioP2;P2;SDS_P1;SDS_P2;PMS_P1;PMS_P2;Temp;Humidity;BMP_temperature;BMP_pressure;BME280_temperature;BME280_humidity;BME280_pressure;Samples;Min_cycle;Max_cycle;Signal;HPM_P1;HPM_P2
2021/11/10 00:00:52;;;;;;;13.18;7.55;;;;;;;0.44;100.00;101452.75;5051685;28;20052;-61
2021/11/10 00:03:37;;;;;;;9.98;6.10;;;;;;;0.37;99.86;101445.97;5052367;28;20059;-64
2021/11/10 00:06:23;;;;;;;17.60;8.60;;;;;;;0.44;100.00;101442.19;5051297;28;20064;-61
2021/11/10 00:09:09;;;;;;;15.13;8.50;;;;;;;0.46;100.00;101443.88;5051811;28;20059;-64
2021/11/10 00:11:54;;;;;;;17.40;8.20;;;;;;;0.40;100.00;101437.94;5046905;28;20069;-62
2021/11/10 00:14:39;;;;;;;10.95;6.80;;;;;;;0.43;100.00;101436.06;5052088;28;20075;-63
2021/11/10 00:17:24;;;;;;;14.25;7.45;;;;;;;0.43;100.00;101440.47;5052063;28;20198;-63
2021/11/10 00:20:11;;;;;;;17.92;7.60;;;;;;;0.45;100.00;101436.88;5051183;28;20055;-62
2021/11/10 00:22:58;;;;;;;17.35;7.60;;;;;;;0.48;100.00;101433.28;5050290;28;20052;-62
2021/11/10 00:25:43;;;;;;;14.10;7.32;;;;;;;0.45;100.00;101433.34;5050845;28;20518;-60
2021/11/10 00:28:28;;;;;;;14.25;7.32;;;;;;;0.42;100.00;101425.53;5051081;28;20056;-63
2021/11/10 00:31:13;;;;;;;12.98;6.57;;;;;;;0.43;100.00;101424.63;5052103;28;20517;-62
2021/11/10 00:33:58;;;;;;;12.77;7.67;;;;;;;0.40;100.00;101424.75;5050348;28;20412;-61
2021/11/10 00:36:44;;;;;;;16.25;7.20;;;;;;;0.39;100.00;101423.88;5050871;28;20240;-63
2021/11/10 00:39:30;;;;;;;15.05;7.47;;;;;;;0.36;100.00;101412.56;5046823;28;20056;-61
2021/11/10 00:42:15;;;;;;;18.15;8.73;;;;;;;0.38;100.00;101413.38;5051784;28;20052;-61
2021/11/10 00:45:00;;;;;;;16.95;8.25;;;;;;;0.40;100.00;101403.59;5051189;28;20059;-62
2021/11/10 00:47:45;;;;;;;14.88;8.00;;;;;;;0.48;100.00;101401.59;5051073;28;20056;-56
2021/11/10 00:50:31;;;;;;;14.40;8.02;;;;;;;0.43;100.00;101400.84;5049317;28;20126;-59
2021/11/10 00:53:16;;;;;;;19.38;9.18;;;;;;;0.35;100.00;101389.69;5050827;28;20513;-62
2021/11/10 00:56:02;;;;;;;22.83;11.57;;;;;;;0.32;100.00;101392.44;5050610;28;20445;-61
2021/11/10 00:58:47;;;;;;;24.60;11.90;;;;;;;0.42;100.00;101396.50;5051454;28;20423;-60
2021/11/10 01:01:32;;;;;;;23.17;11.85;;;;;;;0.50;100.00;101395.31;5051080;28;20056;-62
2021/11/10 01:04:17;;;;;;;19.20;10.80;;;;;;;0.50;100.00;101386.53;5050403;28;20422;-62
2021/11/10 01:07:03;;;;;;;18.90;10.23;;;;;;;0.55;100.00;101387.22;5049927;28;20051;-62
2021/11/10 01:09:54;;;;;;;19.35;10.55;;;;;;;0.53;100.00;101382.00;5051287;28;20052;-61
2021/11/10 01:12:40;;;;;;;23.05;11.02;;;;;;;0.56;100.00;101373.97;5051312;28;20526;-63
2021/11/10 01:15:26;;;;;;;30.02;14.45;;;;;;;0.74;100.00;101377.75;5050531;28;20060;-62
2021/11/10 01:18:11;;;;;;;27.65;13.90;;;;;;;0.77;100.00;101379.44;5048938;28;20056;-60
2021/11/10 01:20:57;;;;;;;32.87;15.97;;;;;;;1.00;100.00;101384.75;5050900;28;20110;-63
2021/11/10 01:23:42;;;;;;;26.63;13.07;;;;;;;0.96;100.00;101382.28;5050981;28;20613;-63
2021/11/10 01:26:28;;;;;;;25.15;13.77;;;;;;;0.93;100.00;101374.44;5049476;28;20075;-61
2021/11/10 01:29:15;;;;;;;29.65;15.57;;;;;;;1.05;100.00;101380.16;5050472;28;20076;-60
2021/11/10 01:32:00;;;;;;;30.13;14.18;;;;;;;1.14;100.00;101376.31;5051202;28;20159;-62
2021/11/10 01:34:45;;;;;;;26.13;13.70;;;;;;;0.98;100.00;101369.88;5049967;28;20122;-60
2021/11/10 01:37:30;;;;;;;19.27;11.25;;;;;;;0.81;100.00;101381.03;5050786;28;20059;-62
2021/11/10 01:40:17;;;;;;;23.30;12.10;;;;;;;0.68;100.00;101374.47;5045103;28;20052;-61
2021/11/10 01:43:13;;;;;;;21.63;12.13;;;;;;;0.64;100.00;101373.72;5050059;28;20534;-62
2021/11/10 01:45:59;;;;;;;25.63;11.07;;;;;;;0.58;100.00;101365.97;5050071;28;20071;-60
2021/11/10 01:48:44;;;;;;;22.55;11.80;;;;;;;0.52;100.00;101353.00;5048794;28;20178;-60
2021/11/10 01:51:29;;;;;;;17.80;10.68;;;;;;;0.41;100.00;101355.16;5049146;28;20266;-61
2021/11/10 01:54:14;;;;;;;21.15;11.52;;;;;;;0.35;100.00;101352.69;5050436;28;20406;-62
2021/11/10 01:57:00;;;;;;;23.33;11.52;;;;;;;0.28;100.00;101350.28;5044602;28;20052;-64
2021/11/10 01:59:47;;;;;;;28.13;13.40;;;;;;;0.32;100.00;101342.25;5041834;28;20525;-60
2021/11/10 02:02:34;;;;;;;27.27;13.77;;;;;;;0.28;100.00;101345.00;5047897;28;20311;-58
2021/11/10 02:05:20;;;;;;;22.50;12.38;;;;;;;0.18;100.00;101335.66;5045956;28;20137;-60
2021/11/10 02:08:06;;;;;;;22.05;11.52;;;;;;;0.13;100.00;101336.75;5047919;28;20059;-60
2021/11/10 02:10:51;;;;;;;21.65;12.38;;;;;;;0.09;100.00;101335.97;5048189;28;20052;-62
2021/11/10 02:13:36;;;;;;;23.92;13.35;;;;;;;0.09;100.00;101317.50;5043883;28;20418;-61
2021/11/10 02:16:21;;;;;;;29.00;13.02;;;;;;;0.13;100.00;101311.22;5048619;28;20055;-60
2021/11/10 02:19:08;;;;;;;24.95;13.13;;;;;;;0.17;100.00;101302.25;5043657;28;20064;-63
2021/11/10 02:21:57;;;;;;;24.95;14.10;;;;;;;0.17;100.00;101299.63;5048107;28;20130;-62
2021/11/10 02:24:43;;;;;;;20.85;11.00;;;;;;;0.06;100.00;101298.25;5047529;28;20055;-62
2021/11/10 02:27:33;;;;;;;21.55;11.65;;;;;;;-0.16;99.99;101292.84;5041716;28;20114;-61
2021/11/10 02:30:20;;;;;;;19.40;11.25;;;;;;;-0.22;99.92;101286.00;5046387;28;20189;-62
2021/11/10 02:33:05;;;;;;;21.80;10.35;;;;;;;-0.23;100.00;101292.19;5040521;28;20514;-62
2021/11/10 02:35:50;;;;;;;20.98;10.48;;;;;;;-0.28;100.00;101278.28;5048570;28;20456;-66
2021/11/10 02:38:37;;;;;;;24.95;11.85;;;;;;;-0.33;100.00;101274.94;5049658;28;20552;-61
2021/11/10 02:41:23;;;;;;;19.05;10.43;;;;;;;-0.31;100.00;101263.41;5049017;28;20411;-62
2021/11/10 02:44:08;;;;;;;22.67;11.60;;;;;;;-0.47;100.00;101278.03;5049151;28;20056;-62
2021/11/10 02:46:53;;;;;;;23.10;11.70;;;;;;;-0.51;100.00;101263.19;5049786;28;20302;-62
2021/11/10 02:49:38;;;;;;;21.77;11.25;;;;;;;-0.56;100.00;101264.25;5048722;28;20561;-62
2021/11/10 02:52:23;;;;;;;20.45;11.77;;;;;;;-0.58;100.00;101260.81;5047656;28;20056;-60
2021/11/10 02:55:10;;;;;;;27.52;13.63;;;;;;;-0.70;100.00;101260.28;5049567;28;20098;-62
2021/11/10 02:57:55;;;;;;;23.75;12.43;;;;;;;-0.63;100.00;101266.22;5049994;28;20197;-61
2021/11/10 03:00:40;;;;;;;21.65;11.15;;;;;;;-0.62;100.00;101263.53;5048629;28;20080;-61
2021/11/10 03:03:24;;;;;;;22.25;11.27;;;;;;;-0.57;100.00;101265.19;5049245;28;20060;-62
2021/11/10 03:06:09;;;;;;;24.15;11.45;;;;;;;-0.58;100.00;101261.69;5049574;28;20056;-60
2021/11/10 03:08:55;;;;;;;24.93;12.80;;;;;;;-0.57;100.00;101258.13;5049237;28;20191;-62
2021/11/10 03:11:41;;;;;;;24.30;12.32;;;;;;;-0.56;100.00;101261.63;5048092;28;20530;-62
2021/11/10 03:14:26;;;;;;;21.45;11.63;;;;;;;-0.67;100.00;101256.69;5050448;28;20164;-63
2021/11/10 03:17:14;;;;;;;22.35;11.18;;;;;;;-0.71;100.00;101263.84;5053729;28;20118;-62
2021/11/10 03:19:59;;;;;;;22.70;10.55;;;;;;;-0.71;100.00;101255.94;5053175;28;20319;-61
2021/11/10 03:22:44;;;;;;;19.83;11.43;;;;;;;-0.79;100.00;101268.47;5052974;28;20402;-62
2021/11/10 03:25:29;;;;;;;22.42;11.80;;;;;;;-0.91;100.00;101261.81;5052675;28;20099;-63
2021/11/10 03:28:15;;;;;;;18.85;10.75;;;;;;;-0.91;100.00;101255.66;5052833;28;20055;-61
2021/11/10 03:31:00;;;;;;;21.35;11.90;;;;;;;-0.95;100.00;101268.09;5048210;28;20056;-60
2021/11/10 03:33:45;;;;;;;22.25;11.45;;;;;;;-0.96;100.00;101262.84;5051694;28;20052;-61
2021/11/10 03:36:31;;;;;;;20.87;10.60;;;;;;;-0.92;100.00;101261.84;5051840;28;20201;-63
2021/11/10 03:39:17;;;;;;;24.35;12.00;;;;;;;-0.93;100.00;101263.63;5052832;28;20122;-63
2021/11/10 03:42:04;;;;;;;24.77;12.60;;;;;;;-0.99;100.00;101261.16;5039533;28;20526;-61
2021/11/10 03:44:50;;;;;;;;;;;;;;;-0.93;100.00;101266.28;5053269;28;20069;-64
2021/11/10 03:47:35;;;;;;;31.23;14.43;;;;;;;-0.93;100.00;101261.00;5051372;28;20436;-61
2021/11/10 03:50:20;;;;;;;34.50;14.27;;;;;;;-1.03;100.00;101266.59;5047161;28;20052;-62
2021/11/10 03:53:05;;;;;;;28.05;13.82;;;;;;;-1.05;100.00;101264.00;5052399;28;20048;-63
2021/11/10 03:55:50;;;;;;;26.38;12.48;;;;;;;-1.05;100.00;101256.09;5051685;28;20595;-63
2021/11/10 03:58:36;;;;;;;28.05;13.82;;;;;;;-1.07;100.00;101262.28;5047213;28;20406;-61
2021/11/10 04:01:22;;;;;;;26.27;13.98;;;;;;;-1.09;100.00;101251.81;5052329;28;20184;-63
2021/11/10 04:04:09;;;;;;;29.02;14.40;;;;;;;-1.11;100.00;101261.53;5050549;28;20102;-63
2021/11/10 04:06:54;;;;;;;28.33;13.85;;;;;;;-1.15;99.98;101261.69;5045110;28;20141;-64
2021/11/10 04:09:39;;;;;;;26.30;12.23;;;;;;;-1.26;99.61;101259.34;5050199;28;20075;-63
2021/11/10 04:12:24;;;;;;;34.65;15.93;;;;;;;-1.38;99.98;101259.72;5052220;28;20063;-61
2021/11/10 04:15:09;;;;;;;31.45;15.02;;;;;;;-1.42;100.00;101250.16;5051262;28;20064;-64
2021/11/10 04:17:56;;;;;;;28.40;15.40;;;;;;;-1.45;100.00;101250.25;5051608;28;20115;-60
2021/11/10 04:20:41;;;;;;;;;;;;;;;-1.53;100.00;101256.63;5052056;28;20307;-62
2021/11/10 04:23:27;;;;;;;26.10;12.65;;;;;;;-1.50;100.00;101266.19;5050624;28;19935;-62
2021/11/10 04:26:12;;;;;;;28.95;12.90;;;;;;;-1.44;100.00;101265.13;5051598;28;20095;-62
2021/11/10 04:28:57;;;;;;;33.20;16.10;;;;;;;-1.42;100.00;101269.47;5052317;28;20605;-63
2021/11/10 04:31:43;;;;;;;30.38;13.77;;;;;;;-1.40;100.00;101269.44;5051472;28;20187;-62
2021/11/10 04:34:30;;;;;;;31.05;14.93;;;;;;;-1.39;100.00;101268.53;5050802;28;20048;-59
2021/11/10 04:37:15;;;;;;;28.27;14.35;;;;;;;-1.45;100.00;101266.91;5051204;28;20076;-61
2021/11/10 04:40:00;;;;;;;30.10;14.88;;;;;;;-1.37;100.00;101269.34;5051464;28;20419;-62
2021/11/10 04:42:45;;;;;;;31.77;15.35;;;;;;;-1.29;100.00;101270.84;5050783;28;20055;-62
2021/11/10 04:45:33;;;;;;;28.00;14.60;;;;;;;-1.26;100.00;101264.63;5051071;28;20075;-60
2021/11/10 04:48:18;;;;;;;29.48;14.30;;;;;;;-1.24;100.00;101268.06;5046575;28;20183;-61
2021/11/10 04:51:06;;;;;;;32.53;15.27;;;;;;;-1.22;100.00;101253.94;5050490;28;20044;-63
2021/11/10 04:53:51;;;;;;;30.73;14.52;;;;;;;-1.28;100.00;101248.88;5048933;28;20084;-61
2021/11/10 04:56:37;;;;;;;36.78;17.65;;;;;;;-1.28;100.00;101250.66;5050976;28;20056;-61
2021/11/10 04:59:22;;;;;;;33.75;16.02;;;;;;;-1.24;100.00;101244.38;5051384;28;20102;-62
2021/11/10 05:02:25;;;;;;;50.58;16.60;;;;;;;-1.22;100.00;101246.03;5050269;28;20090;-62
2021/11/10 05:05:10;;;;;;;28.92;15.27;;;;;;;-1.27;100.00;101239.19;5050806;28;20059;-62
2021/11/10 05:07:57;;;;;;;35.80;17.10;;;;;;;-1.37;100.00;101232.47;5049781;28;20053;-62
2021/11/10 05:10:42;;;;;;;28.55;14.70;;;;;;;-1.43;100.00;101233.50;5050796;28;20072;-63
2021/11/10 05:13:27;;;;;;;30.35;14.45;;;;;;;-1.39;100.00;101231.66;5050324;28;20431;-63
2021/11/10 05:16:13;;;;;;;28.83;15.55;;;;;;;-1.37;100.00;101225.44;5050287;28;20207;-59
2021/11/10 05:18:58;;;;;;;33.63;14.10;;;;;;;-1.22;100.00;101218.84;5050686;28;20064;-61
2021/11/10 05:21:43;;;;;;;42.60;19.98;;;;;;;-1.12;100.00;101217.66;5051182;28;20152;-65
2021/11/10 05:24:29;;;;;;;33.25;15.43;;;;;;;-0.92;100.00;101217.06;5049907;28;20141;-61
2021/11/10 05:27:14;;;;;;;32.88;14.90;;;;;;;-0.89;100.00;101209.91;5050480;28;20071;-62
2021/11/10 05:29:59;;;;;;;29.30;13.10;;;;;;;-0.90;100.00;101215.22;5050957;28;20102;-61
2021/11/10 05:32:44;;;;;;;26.63;12.68;;;;;;;-0.90;100.00;101210.81;5048881;28;20150;-61
2021/11/10 05:35:30;;;;;;;23.95;14.30;;;;;;;-0.96;100.00;101205.72;5044833;28;20415;-60
2021/11/10 05:38:15;;;;;;;24.77;13.35;;;;;;;-1.03;100.00;101209.47;5050141;28;20495;-63
2021/11/10 05:41:01;;;;;;;25.58;13.07;;;;;;;-1.07;100.00;101212.22;5049503;28;20082;-62
2021/11/10 05:43:46;;;;;;;22.98;12.18;;;;;;;-1.06;100.00;101206.09;5045951;28;20403;-63
2021/11/10 05:46:31;;;;;;;26.63;13.48;;;;;;;-1.10;100.00;101205.28;5050186;28;20059;-60
2021/11/10 05:49:16;;;;;;;24.45;12.00;;;;;;;-1.08;100.00;101200.84;5050559;28;20106;-59
2021/11/10 05:52:01;;;;;;;28.17;13.70;;;;;;;-1.00;100.00;101198.84;5050190;28;20047;-63
2021/11/10 05:54:48;;;;;;;25.85;13.30;;;;;;;-1.03;100.00;101198.06;5043259;28;20629;-63
2021/11/10 05:57:37;;;;;;;33.97;15.23;;;;;;;-1.03;100.00;101195.44;5049731;28;20411;-63
2021/11/10 06:00:23;;;;;;;32.53;15.50;;;;;;;-1.12;100.00;101193.94;5049015;28;20534;-63
2021/11/10 06:03:08;;;;;;;34.08;16.88;;;;;;;-1.10;100.00;101194.75;5039664;28;20064;-63
2021/11/10 06:05:54;;;;;;;42.80;17.30;;;;;;;-1.26;100.00;101193.50;5044580;28;20052;-63
2021/11/10 06:08:39;;;;;;;36.38;15.32;;;;;;;-1.39;100.00;101192.16;5046538;28;20052;-62
2021/11/10 06:11:24;;;;;;;29.40;13.88;;;;;;;-1.41;100.00;101193.97;5043199;28;20051;-64
2021/11/10 06:14:10;;;;;;;33.47;15.98;;;;;;;-1.43;100.00;101182.59;5049734;28;20194;-63
2021/11/10 06:16:56;;;;;;;32.88;15.35;;;;;;;-1.37;100.00;101182.44;5049470;28;20060;-62
2021/11/10 06:19:41;;;;;;;32.78;14.40;;;;;;;-1.29;100.00;101198.88;5048810;28;20064;-62
2021/11/10 06:22:26;;;;;;;29.45;14.57;;;;;;;-1.26;100.00;101188.25;5046678;28;20099;-62
2021/11/10 06:25:12;;;;;;;30.33;14.65;;;;;;;-1.13;100.00;101184.31;5043891;28;20056;-63
2021/11/10 06:27:57;;;;;;;26.98;14.48;;;;;;;-1.02;100.00;101190.13;5046059;28;20068;-62
2021/11/10 06:30:44;;;;;;;33.77;15.60;;;;;;;-0.94;100.00;101192.53;5046216;28;20072;-62
2021/11/10 06:33:29;;;;;;;35.17;15.52;;;;;;;-0.81;100.00;101193.84;5046480;28;20063;-61
2021/11/10 06:36:14;;;;;;;31.53;15.60;;;;;;;-0.68;100.00;101189.06;5042876;28;20052;-61
2021/11/10 06:38:59;;;;;;;29.55;15.35;;;;;;;-0.60;100.00;101197.56;5048578;28;20321;-60
2021/11/10 06:41:45;;;;;;;30.90;15.80;;;;;;;-0.52;100.00;101224.53;5050310;28;20056;-62
2021/11/10 06:44:30;;;;;;;29.00;15.70;;;;;;;-0.55;100.00;101216.75;5044663;28;20060;-62
2021/11/10 06:47:16;;;;;;;32.15;16.58;;;;;;;-0.55;100.00;101210.59;5048846;28;20126;-61
2021/11/10 06:50:02;;;;;;;33.72;15.93;;;;;;;-0.47;100.00;101217.38;5051323;28;20060;-61
2021/11/10 06:52:48;;;;;;;;;;;;;;;-0.43;100.00;101232.16;5052840;28;20632;-62
2021/11/10 06:55:33;;;;;;;30.27;15.15;;;;;;;-0.41;100.00;101227.69;5048527;28;19966;-62
2021/11/10 06:58:18;;;;;;;32.13;14.52;;;;;;;-0.34;100.00;101229.22;5052147;28;20689;-64
2021/11/10 07:01:04;;;;;;;36.67;17.58;;;;;;;-0.34;100.00;101221.31;5053050;28;20076;-59
2021/11/10 07:03:51;;;;;;;33.85;17.02;;;;;;;-0.32;100.00;101222.13;5055133;28;20064;-63
2021/11/10 07:06:36;;;;;;;40.08;18.38;;;;;;;-0.25;100.00;101228.03;5050772;28;20122;-60
2021/11/10 07:09:21;;;;;;;33.63;16.10;;;;;;;-0.21;100.00;101226.19;5050359;28;20538;-62
2021/11/10 07:12:07;;;;;;;30.08;16.45;;;;;;;-0.21;100.00;101231.44;5054703;28;20102;-62
2021/11/10 07:14:53;;;;;;;32.85;15.93;;;;;;;-0.22;100.00;101224.44;5038834;28;20052;-59
2021/11/10 07:17:38;;;;;;;30.03;15.50;;;;;;;-0.25;100.00;101235.09;5054556;28;20059;-62
2021/11/10 07:20:25;;;;;;;24.65;14.82;;;;;;;-0.29;100.00;101234.34;5054716;28;20064;-62
2021/11/10 07:23:10;;;;;;;30.27;15.25;;;;;;;-0.32;100.00;101224.75;5050396;28;20052;-62
2021/11/10 07:25:55;;;;;;;35.43;16.73;;;;;;;-0.19;100.00;101240.16;5040923;28;20517;-60
2021/11/10 07:28:40;;;;;;;45.83;20.02;;;;;;;-0.05;100.00;101244.06;5054182;28;20151;-60
2021/11/10 07:31:25;;;;;;;41.65;18.77;;;;;;;0.06;100.00;101248.97;5052317;28;20060;-58
2021/11/10 07:34:10;;;;;;;45.08;19.23;;;;;;;0.15;100.00;101251.28;5036628;28;20126;-59
2021/11/10 07:36:57;;;;;;;44.78;18.77;;;;;;;0.29;100.00;101264.88;5045869;28;20052;-60
2021/11/10 07:39:44;;;;;;;54.67;21.58;;;;;;;0.65;100.00;101260.97;5054423;28;20060;-63
2021/11/10 07:42:29;;;;;;;63.13;23.05;;;;;;;0.84;100.00;101262.88;5045622;28;20060;-61
2021/11/10 07:45:18;;;;;;;49.65;20.35;;;;;;;1.03;100.00;101260.38;5053551;28;20060;-63
2021/11/10 07:48:06;;;;;;;52.78;21.15;;;;;;;1.20;100.00;101259.75;5054098;28;20075;-62
2021/11/10 07:50:51;;;;;;;43.17;19.70;;;;;;;1.21;100.00;101250.88;5053942;28;20422;-62
2021/11/10 07:53:38;;;;;;;46.85;19.25;;;;;;;1.30;100.00;101255.81;5053801;28;20438;-61
2021/11/10 07:56:23;;;;;;;54.97;21.58;;;;;;;1.42;100.00;101246.50;5053653;28;20071;-60
2021/11/10 07:59:08;;;;;;;42.58;19.88;;;;;;;1.53;100.00;101238.13;5053398;28;20068;-60
2021/11/10 08:01:53;;;;;;;47.72;20.75;;;;;;;1.56;100.00;101245.97;5053723;28;20072;-63
2021/11/10 08:04:38;;;;;;;47.20;21.98;;;;;;;1.66;100.00;101247.31;5053684;28;20052;-60
2021/11/10 08:07:24;;;;;;;45.72;20.08;;;;;;;1.69;100.00;101247.19;5053013;28;20060;-62
2021/11/10 08:10:12;;;;;;;48.78;21.20;;;;;;;1.71;100.00;101248.84;5053706;28;20060;-62
2021/11/10 08:12:57;;;;;;;48.63;21.50;;;;;;;1.76;99.40;101240.69;5053525;28;20052;-62
2021/11/10 08:15:42;;;;;;;43.42;20.60;;;;;;;1.87;99.50;101238.47;5052867;28;20102;-61
2021/11/10 08:18:28;;;;;;;48.40;19.47;;;;;;;1.97;99.29;101242.44;5053644;28;20194;-59
2021/11/10 08:21:13;;;;;;;35.83;17.25;;;;;;;1.91;99.56;101244.50;5053888;28;20483;-62
2021/11/10 08:23:58;;;;;;;30.77;15.57;;;;;;;1.99;99.18;101252.97;5046678;28;20060;-60
2021/11/10 08:26:45;;;;;;;34.05;16.75;;;;;;;2.11;98.99;101251.59;5044988;28;20064;-62
2021/11/10 08:29:29;;;;;;;34.00;17.25;;;;;;;2.22;98.63;101244.91;5043816;28;20266;-62
2021/11/10 08:32:15;;;;;;;33.15;16.92;;;;;;;2.41;97.35;101236.16;5042805;28;20044;-63
2021/11/10 08:35:01;;;;;;;32.53;16.33;;;;;;;2.39;97.65;101230.94;5044635;28;20126;-61
2021/11/10 08:37:47;;;;;;;35.25;16.63;;;;;;;2.55;96.54;101242.56;5043313;28;20052;-62
2021/11/10 08:40:32;;;;;;;28.45;15.13;;;;;;;2.61;98.37;101233.47;5045282;28;20052;-65
2021/11/10 08:43:20;;;;;;;26.23;15.03;;;;;;;2.72;98.92;101228.53;5051359;28;20170;-59
2021/11/10 08:46:07;;;;;;;30.00;14.88;;;;;;;2.85;98.96;101220.88;5050346;28;20602;-62
2021/11/10 08:48:54;;;;;;;28.25;13.98;;;;;;;2.99;98.52;101222.91;5048369;28;20182;-63
2021/11/10 08:51:40;;;;;;;30.10;15.40;;;;;;;3.06;96.96;101224.31;5051257;28;20056;-64
2021/11/10 08:54:26;;;;;;;28.77;13.82;;;;;;;3.20;97.25;101227.19;5047343;28;20118;-60
2021/11/10 08:57:11;;;;;;;26.30;13.57;;;;;;;3.29;98.43;101231.16;5045214;28;20521;-62
2021/11/10 08:59:57;;;;;;;27.02;13.38;;;;;;;3.56;98.25;101229.84;5051243;28;20063;-63
2021/11/10 09:02:43;;;;;;;27.65;13.38;;;;;;;3.84;97.76;101221.34;5052634;28;20528;-64
2021/11/10 09:05:28;;;;;;;23.35;13.10;;;;;;;4.07;97.44;101213.06;5052351;28;20141;-63
2021/11/10 09:08:13;;;;;;;23.27;13.25;;;;;;;4.38;93.39;101212.34;5052690;28;20056;-63
2021/11/10 09:10:59;;;;;;;27.10;13.23;;;;;;;4.59;92.29;101201.47;5052283;28;20056;-62
2021/11/10 09:13:44;;;;;;;;;;;;;;;4.70;93.46;101199.09;5051904;28;20064;-63
2021/11/10 09:16:31;;;;;;;21.80;11.43;;;;;;;4.80;91.29;101207.44;5051827;28;19935;-64
2021/11/10 09:19:15;;;;;;;20.63;10.98;;;;;;;4.99;93.03;101213.47;5052306;28;20063;-64
2021/11/10 09:22:01;;;;;;;18.98;11.13;;;;;;;5.23;91.75;101220.09;5052049;28;20059;-63
2021/11/10 09:24:46;;;;;;;21.30;10.63;;;;;;;5.37;93.44;101211.31;5052342;28;20430;-63
2021/11/10 09:27:31;;;;;;;19.13;10.93;;;;;;;5.52;90.51;101206.91;5051804;28;20076;-63
2021/11/10 09:30:18;;;;;;;19.63;10.77;;;;;;;5.54;88.72;101224.50;5052005;28;20094;-62
2021/11/10 09:33:06;;;;;;;20.30;9.98;;;;;;;5.67;83.96;101219.34;5052043;28;20064;-62
2021/11/10 09:35:53;;;;;;;20.80;10.13;;;;;;;5.72;88.21;101211.94;5051755;28;20099;-63
2021/11/10 09:38:39;;;;;;;18.05;9.52;;;;;;;5.70;84.24;101205.88;5052187;28;20130;-62
2021/11/10 09:41:25;;;;;;;16.88;8.57;;;;;;;5.75;87.63;101202.91;5052174;28;20064;-63
2021/11/10 09:44:10;;;;;;;17.13;9.17;;;;;;;5.88;84.73;101201.25;5051121;28;20214;-63
2021/11/10 09:46:56;;;;;;;14.93;8.60;;;;;;;5.88;86.32;101206.56;5051644;28;20055;-63
2021/11/10 09:49:42;;;;;;;15.90;8.73;;;;;;;5.82;89.67;101205.13;5052105;28;20064;-61
2021/11/10 09:52:27;;;;;;;19.00;9.43;;;;;;;5.92;87.45;101208.16;5051743;28;20114;-62
2021/11/10 09:55:14;;;;;;;14.73;9.02;;;;;;;5.99;88.29;101206.81;5051697;28;20060;-63
2021/11/10 09:58:00;;;;;;;16.75;8.77;;;;;;;5.95;87.31;101199.97;5051433;28;20106;-64
2021/11/10 10:00:55;;;;;;;14.50;8.18;;;;;;;6.02;87.33;101190.66;5051609;28;20064;-62
2021/11/10 10:03:40;;;;;;;13.73;8.07;;;;;;;6.17;88.84;101183.56;5051459;28;20056;-63
2021/11/10 10:06:29;;;;;;;16.13;7.63;;;;;;;6.36;80.76;101183.28;5051559;28;20056;-64
2021/11/10 10:09:14;;;;;;;21.60;8.70;;;;;;;6.53;85.04;101183.09;5051524;28;20060;-63
2021/11/10 10:11:59;;;;;;;14.45;7.05;;;;;;;6.77;83.39;101185.19;5051383;28;20076;-64
2021/11/10 10:14:45;;;;;;;10.53;6.93;;;;;;;6.95;82.51;101178.66;5033788;28;20199;-64
2021/11/10 10:17:35;;;;;;;11.55;7.07;;;;;;;7.08;81.55;101173.38;5051265;28;20059;-64
2021/11/10 10:20:26;;;;;;;12.65;7.35;;;;;;;7.20;79.09;101178.78;5051204;28;20060;-64
2021/11/10 10:23:15;;;;;;;13.75;6.68;;;;;;;7.30;78.34;101185.25;5052070;28;20056;-64
2021/11/10 10:26:05;;;;;;;11.63;6.05;;;;;;;7.41;79.46;101183.69;5055423;28;20056;-63
2021/11/10 10:28:52;;;;;;;12.57;6.80;;;;;;;7.49;77.21;101178.72;5055217;28;20059;-64
2021/11/10 10:31:39;;;;;;;8.57;5.65;;;;;;;7.44;79.48;101178.13;5056016;28;20056;-63
2021/11/10 10:34:28;;;;;;;11.30;6.38;;;;;;;7.39;76.37;101172.25;5055646;28;20056;-63
2021/11/10 10:37:26;;;;;;;11.85;6.68;;;;;;;7.42;82.15;101172.03;5055660;28;20430;-64
2021/11/10 10:40:16;;;;;;;13.95;6.25;;;;;;;7.43;83.09;101163.06;5055496;28;20469;-63
2021/11/10 10:43:02;;;;;;;13.07;6.30;;;;;;;7.48;82.59;101175.19;5054958;28;20186;-64
2021/11/10 10:45:48;;;;;;;10.80;6.13;;;;;;;7.47;78.90;101176.13;5055230;28;20110;-64
2021/11/10 10:48:33;;;;;;;12.15;5.68;;;;;;;7.41;78.87;101165.00;5054946;28;20059;-62
2021/11/10 10:51:20;;;;;;;9.98;5.45;;;;;;;7.29;81.47;101161.31;5055239;28;20075;-63
2021/11/10 10:54:09;;;;;;;10.52;5.50;;;;;;;7.22;80.23;101160.00;5048266;28;20048;-63
2021/11/10 10:56:59;;;;;;;9.75;5.45;;;;;;;7.19;76.12;101153.03;5046513;28;20594;-64
2021/11/10 10:59:44;;;;;;;10.52;5.70;;;;;;;7.17;81.16;101148.78;5055191;28;20194;-64
2021/11/10 11:02:29;;;;;;;8.73;5.20;;;;;;;7.15;81.09;101148.88;5055558;28;20423;-63
2021/11/10 11:05:37;;;;;;;10.43;4.87;;;;;;;7.08;77.10;101147.53;5054757;28;20055;-61
2021/11/10 11:08:33;;;;;;;9.52;6.15;;;;;;;7.06;79.26;101143.28;5055213;28;20291;-64
2021/11/10 11:11:31;;;;;;;10.85;5.15;;;;;;;7.04;81.11;101146.91;5054649;28;20423;-63
2021/11/10 11:14:36;;;;;;;8.05;5.35;;;;;;;7.10;79.39;101131.44;5054822;28;20536;-63
2021/11/10 11:17:28;;;;;;;8.57;4.75;;;;;;;7.15;78.62;101129.34;5050511;28;20154;-64
2021/11/10 11:20:16;;;;;;;9.60;5.88;;;;;;;7.28;80.51;101133.75;5034883;28;20057;-64
2021/11/10 11:23:03;;;;;;;9.80;5.57;;;;;;;7.31;78.76;101135.38;5034751;28;20510;-63
2021/11/10 11:25:48;;;;;;;8.80;5.15;;;;;;;7.38;78.80;101142.03;5034746;28;20107;-63
2021/11/10 11:28:38;;;;;;;11.02;5.63;;;;;;;7.50;77.04;101143.03;5034771;28;20176;-65
2021/11/10 11:31:33;;;;;;;11.02;5.68;;;;;;;7.67;77.79;101137.38;5034727;28;20115;-63
2021/11/10 11:34:18;;;;;;;12.52;5.32;;;;;;;7.76;75.90;101134.09;5033958;28;20060;-64
2021/11/10 11:37:03;;;;;;;8.93;5.60;;;;;;;7.83;76.83;101138.06;5034094;28;20060;-64
2021/11/10 11:39:49;;;;;;;9.25;4.93;;;;;;;7.81;78.18;101142.66;5034951;28;20056;-63
2021/11/10 11:42:35;;;;;;;11.60;6.18;;;;;;;7.82;75.21;101138.19;5033878;28;20155;-65
2021/11/10 11:45:20;;;;;;;12.73;5.97;;;;;;;7.82;76.39;101123.00;5034613;28;20168;-63
2021/11/10 11:48:08;;;;;;;10.95;5.20;;;;;;;7.82;75.27;101131.03;5034717;28;20423;-63
2021/11/10 11:50:56;;;;;;;12.23;5.00;;;;;;;7.92;78.59;101126.72;5033985;28;20075;-64
2021/11/10 11:53:42;;;;;;;7.75;4.65;;;;;;;8.04;77.11;101132.19;5034116;28;20107;-63
2021/11/10 11:56:29;;;;;;;9.43;4.82;;;;;;;8.16;74.14;101124.16;5034337;28;20095;-61
2021/11/10 11:59:15;;;;;;;;;;;;;;;8.32;74.84;101132.00;5041300;28;20534;-62
2021/11/10 12:02:01;;;;;;;13.57;4.30;;;;;;;8.46;73.00;101129.22;5054182;28;20305;-62
2021/11/10 12:04:48;;;;;;;10.85;4.97;;;;;;;8.47;72.78;101122.91;5053705;28;20052;-64
2021/11/10 12:07:46;;;;;;;8.27;4.80;;;;;;;8.48;74.97;101131.78;5053480;28;20071;-64
2021/11/10 12:10:39;;;;;;;9.68;4.50;;;;;;;8.47;73.99;101122.91;5053891;28;20130;-65
2021/11/10 12:13:24;;;;;;;15.38;4.75;;;;;;;8.45;71.87;101123.97;5053660;28;20055;-63
2021/11/10 12:16:19;;;;;;;11.17;4.70;;;;;;;8.63;71.34;101114.63;5052955;28;20060;-63
2021/11/10 12:19:04;;;;;;;11.73;5.28;;;;;;;8.75;69.65;101107.53;5044204;28;20298;-63
2021/11/10 12:21:53;;;;;;;8.63;4.20;;;;;;;8.85;70.14;101102.38;5049402;28;20518;-63
2021/11/10 12:24:46;;;;;;;11.57;4.40;;;;;;;8.90;69.37;101117.13;5051340;28;20685;-63
2021/11/10 12:27:37;;;;;;;10.23;4.95;;;;;;;8.97;70.08;101118.38;5053325;28;20430;-63
2021/11/10 12:30:24;;;;;;;10.07;4.40;;;;;;;9.04;69.43;101113.44;5051623;28;20119;-63
2021/11/10 12:33:09;;;;;;;6.55;4.32;;;;;;;8.96;69.39;101111.31;5045684;28;20131;-65
2021/11/10 12:35:54;;;;;;;10.07;4.45;;;;;;;8.97;68.69;101115.69;5047130;28;20130;-63
2021/11/10 12:38:41;;;;;;;16.67;6.40;;;;;;;8.96;67.93;101105.97;5040329;28;20126;-62
2021/11/10 12:41:26;;;;;;;10.63;4.38;;;;;;;8.97;69.83;101115.69;5047357;28;20427;-64